sensor_id;sensor_type;location;lat;lon;timestamp;pressure;altitude;pressure_sealevel;temperature;humidity
2681;BME280;1350;42.134;24.708;2023-04-24T00:00:35;99282.50;;;11.94;100.00
2681;BME280;1350;42.134;24.708;2023-04-24T00:03:03;99277.84;;;11.83;100.00
2681;BME280;1350;42.134;24.708;2023-04-24T00:05:31;99277.75;;;11.85;100.00
2681;BME280;1350;42.134;24.708;2023-04-24T00:08:00;99277.28;;;11.78;100.00
2681;BME280;1350;42.134;24.708;2023-04-24T00:10:27;99276.03;;;11.84;100.00
2681;BME280;1350;42.134;24.708;2023-04-24T00:12:54;99268.25;;;11.95;100.00
2681;BME280;1350;42.134;24.708;2023-04-24T00:15:20;99267.97;;;12.00;100.00
2681;BME280;1350;42.134;24.708;2023-04-24T00:17:47;99271.38;;;12.02;100.00
2681;BME280;1350;42.134;24.708;2023-04-24T00:20:14;99276.69;;;11.87;100.00
2681;BME280;1350;42.134;24.708;2023-04-24T00:22:41;99277.97;;;11.38;100.00
2681;BME280;1350;42.134;24.708;2023-04-24T00:25:09;99272.09;;;11.47;100.00
2681;BME280;1350;42.134;24.708;2023-04-24T00:27:36;99267.19;;;11.55;100.00
2681;BME280;1350;42.134;24.708;2023-04-24T00:30:05;99270.41;;;11.46;100.00
2681;BME280;1350;42.134;24.708;2023-04-24T00:32:31;99272.50;;;11.55;100.00
2681;BME280;1350;42.134;24.708;2023-04-24T00:34:58;99274.94;;;11.44;100.00
2681;BME280;1350;42.134;24.708;2023-04-24T00:37:25;99270.56;;;11.29;100.00
2681;BME280;1350;42.134;24.708;2023-04-24T00:39:52;99267.69;;;11.18;100.00
2681;BME280;1350;42.134;24.708;2023-04-24T00:42:20;99265.41;;;11.12;100.00
2681;BME280;1350;42.134;24.708;2023-04-24T00:44:47;99272.03;;;11.05;100.00
2681;BME280;1350;42.134;24.708;2023-04-24T00:47:14;99266.72;;;11.05;100.00
2681;BME280;1350;42.134;24.708;2023-04-24T00:49:41;99269.97;;;11.24;100.00
2681;BME280;1350;42.134;24.708;2023-04-24T00:52:07;99269.84;;;10.98;100.00
2681;BME280;1350;42.134;24.708;2023-04-24T00:54:34;99268.16;;;10.81;100.00
2681;BME280;1350;42.134;24.708;2023-04-24T00:57:01;99268.00;;;10.69;100.00
2681;BME280;1350;42.134;24.708;2023-04-24T00:59:30;99267.50;;;10.78;100.00
2681;BME280;1350;42.134;24.708;2023-04-24T01:01:58;99265.31;;;10.84;100.00
2681;BME280;1350;42.134;24.708;2023-04-24T01:04:25;99268.66;;;10.88;100.00
2681;BME280;1350;42.134;24.708;2023-04-24T01:06:52;99268.38;;;10.92;100.00
2681;BME280;1350;42.134;24.708;2023-04-24T01:09:21;99269.78;;;10.84;100.00
2681;BME280;1350;42.134;24.708;2023-04-24T01:11:50;99272.22;;;10.57;100.00
2681;BME280;1350;42.134;24.708;2023-04-24T01:14:17;99258.91;;;10.27;100.00
2681;BME280;1350;42.134;24.708;2023-04-24T01:16:45;99265.16;;;10.27;100.00
2681;BME280;1350;42.134;24.708;2023-04-24T01:19:13;99265.59;;;10.19;100.00
2681;BME280;1350;42.134;24.708;2023-04-24T01:21:42;99260.66;;;10.13;100.00
2681;BME280;1350;42.134;24.708;2023-04-24T01:24:11;99262.47;;;9.95;100.00
2681;BME280;1350;42.134;24.708;2023-04-24T01:26:38;99263.84;;;9.87;100.00
2681;BME280;1350;42.134;24.708;2023-04-24T01:29:05;99262.44;;;9.80;100.00
2681;BME280;1350;42.134;24.708;2023-04-24T01:31:32;99260.72;;;9.63;100.00
2681;BME280;1350;42.134;24.708;2023-04-24T01:33:59;99271.13;;;9.66;100.00
2681;BME280;1350;42.134;24.708;2023-04-24T01:36:27;99267.22;;;9.73;100.00
2681;BME280;1350;42.134;24.708;2023-04-24T01:38:55;99265.13;;;9.63;100.00
2681;BME280;1350;42.134;24.708;2023-04-24T01:41:23;99270.22;;;9.50;100.00
2681;BME280;1350;42.134;24.708;2023-04-24T01:43:51;99275.94;;;9.43;100.00
2681;BME280;1350;42.134;24.708;2023-04-24T01:46:18;99271.03;;;9.35;100.00
2681;BME280;1350;42.134;24.708;2023-04-24T01:48:45;99265.66;;;9.37;100.00
2681;BME280;1350;42.134;24.708;2023-04-24T01:51:12;99263.88;;;9.37;100.00
2681;BME280;1350;42.134;24.708;2023-04-24T01:53:39;99258.84;;;9.33;100.00
2681;BME280;1350;42.134;24.708;2023-04-24T01:56:06;99257.25;;;9.46;100.00
2681;BME280;1350;42.134;24.708;2023-04-24T01:58:35;99254.25;;;9.52;100.00
2681;BME280;1350;42.134;24.708;2023-04-24T02:01:02;99257.19;;;9.63;100.00
2681;BME280;1350;42.134;24.708;2023-04-24T02:03:29;99265.19;;;9.78;100.00
2681;BME280;1350;42.134;24.708;2023-04-24T02:05:55;99250.81;;;9.67;100.00
2681;BME280;1350;42.134;24.708;2023-04-24T02:08:22;99254.59;;;9.78;100.00
2681;BME280;1350;42.134;24.708;2023-04-24T02:10:49;99251.50;;;9.86;100.00
2681;BME280;1350;42.134;24.708;2023-04-24T02:13:16;99251.94;;;9.78;100.00
2681;BME280;1350;42.134;24.708;2023-04-24T02:15:44;99244.00;;;9.46;100.00
2681;BME280;1350;42.134;24.708;2023-04-24T02:18:10;99249.44;;;9.60;100.00
2681;BME280;1350;42.134;24.708;2023-04-24T02:20:38;99243.22;;;9.76;100.00
2681;BME280;1350;42.134;24.708;2023-04-24T02:23:04;99235.53;;;9.72;100.00
2681;BME280;1350;42.134;24.708;2023-04-24T02:25:31;99239.31;;;9.83;100.00
2681;BME280;1350;42.134;24.708;2023-04-24T02:27:58;99235.47;;;9.89;100.00
2681;BME280;1350;42.134;24.708;2023-04-24T02:30:25;99224.03;;;9.88;100.00
2681;BME280;1350;42.134;24.708;2023-04-24T02:32:53;99227.88;;;9.98;100.00
2681;BME280;1350;42.134;24.708;2023-04-24T02:35:20;99233.84;;;9.86;100.00
2681;BME280;1350;42.134;24.708;2023-04-24T02:37:47;99223.00;;;9.91;100.00
2681;BME280;1350;42.134;24.708;2023-04-24T02:40:14;99228.03;;;9.95;100.00
2681;BME280;1350;42.134;24.708;2023-04-24T02:42:40;99229.91;;;9.93;100.00
2681;BME280;1350;42.134;24.708;2023-04-24T02:45:08;99223.41;;;9.83;100.00
2681;BME280;1350;42.134;24.708;2023-04-24T02:47:34;99231.97;;;9.88;100.00
2681;BME280;1350;42.134;24.708;2023-04-24T02:50:03;99232.91;;;10.03;100.00
2681;BME280;1350;42.134;24.708;2023-04-24T02:52:30;99233.00;;;10.01;100.00
2681;BME280;1350;42.134;24.708;2023-04-24T02:54:57;99231.22;;;10.02;100.00
2681;BME280;1350;42.134;24.708;2023-04-24T02:57:24;99238.91;;;10.06;100.00
2681;BME280;1350;42.134;24.708;2023-04-24T02:59:50;99231.50;;;10.13;100.00
2681;BME280;1350;42.134;24.708;2023-04-24T03:02:17;99235.72;;;10.00;100.00
2681;BME280;1350;42.134;24.708;2023-04-24T03:04:44;99236.25;;;9.91;100.00
2681;BME280;1350;42.134;24.708;2023-04-24T03:07:12;99234.53;;;9.90;100.00
2681;BME280;1350;42.134;24.708;2023-04-24T03:09:39;99236.06;;;9.94;100.00
2681;BME280;1350;42.134;24.708;2023-04-24T03:12:06;99236.41;;;10.03;100.00
2681;BME280;1350;42.134;24.708;2023-04-24T03:14:33;99239.97;;;10.02;100.00
2681;BME280;1350;42.134;24.708;2023-04-24T03:17:00;99233.84;;;10.02;100.00
2681;BME280;1350;42.134;24.708;2023-04-24T03:19:27;99239.63;;;10.10;100.00
2681;BME280;1350;42.134;24.708;2023-04-24T03:21:53;99243.38;;;10.21;100.00
2681;BME280;1350;42.134;24.708;2023-04-24T03:24:22;99246.53;;;10.28;100.00
2681;BME280;1350;42.134;24.708;2023-04-24T03:26:48;99245.94;;;10.23;100.00
2681;BME280;1350;42.134;24.708;2023-04-24T03:29:15;99245.56;;;10.29;100.00
2681;BME280;1350;42.134;24.708;2023-04-24T03:31:42;99257.13;;;10.28;100.00
2681;BME280;1350;42.134;24.708;2023-04-24T03:34:08;99255.31;;;10.44;100.00
2681;BME280;1350;42.134;24.708;2023-04-24T03:36:35;99256.22;;;10.74;100.00
2681;BME280;1350;42.134;24.708;2023-04-24T03:39:02;99263.28;;;10.74;100.00
2681;BME280;1350;42.134;24.708;2023-04-24T03:41:30;99263.50;;;11.00;100.00
2681;BME280;1350;42.134;24.708;2023-04-24T03:43:57;99259.75;;;11.32;100.00
2681;BME280;1350;42.134;24.708;2023-04-24T03:46:24;99260.44;;;11.36;100.00
2681;BME280;1350;42.134;24.708;2023-04-24T03:48:50;99253.31;;;11.22;100.00
2681;BME280;1350;42.134;24.708;2023-04-24T03:51:17;99250.81;;;11.19;100.00
2681;BME280;1350;42.134;24.708;2023-04-24T03:53:44;99239.47;;;11.17;100.00
2681;BME280;1350;42.134;24.708;2023-04-24T03:56:11;99252.72;;;11.17;100.00
2681;BME280;1350;42.134;24.708;2023-04-24T03:58:39;99251.16;;;11.43;100.00
2681;BME280;1350;42.134;24.708;2023-04-24T04:01:05;99245.84;;;11.43;100.00
2681;BME280;1350;42.134;24.708;2023-04-24T04:03:32;99254.91;;;11.68;100.00
2681;BME280;1350;42.134;24.708;2023-04-24T04:05:59;99259.06;;;11.86;100.00
2681;BME280;1350;42.134;24.708;2023-04-24T04:08:26;99254.09;;;12.09;100.00
2681;BME280;1350;42.134;24.708;2023-04-24T04:10:53;99255.97;;;12.21;100.00
2681;BME280;1350;42.134;24.708;2023-04-24T04:13:20;99256.78;;;12.35;100.00
2681;BME280;1350;42.134;24.708;2023-04-24T04:15:48;99261.75;;;12.54;100.00
2681;BME280;1350;42.134;24.708;2023-04-24T04:18:15;99260.13;;;12.78;100.00
2681;BME280;1350;42.134;24.708;2023-04-24T04:20:41;99261.94;;;13.04;100.00
2681;BME280;1350;42.134;24.708;2023-04-24T04:23:08;99269.22;;;13.27;100.00
2681;BME280;1350;42.134;24.708;2023-04-24T04:25:35;99267.44;;;13.27;100.00
2681;BME280;1350;42.134;24.708;2023-04-24T04:28:02;99274.88;;;13.35;100.00
2681;BME280;1350;42.134;24.708;2023-04-24T04:30:28;99280.84;;;13.26;100.00
2681;BME280;1350;42.134;24.708;2023-04-24T04:32:58;99290.34;;;13.42;100.00
2681;BME280;1350;42.134;24.708;2023-04-24T04:35:25;99278.53;;;13.46;100.00
2681;BME280;1350;42.134;24.708;2023-04-24T04:37:52;99272.66;;;13.29;100.00
2681;BME280;1350;42.134;24.708;2023-04-24T04:40:19;99278.63;;;13.32;100.00
2681;BME280;1350;42.134;24.708;2023-04-24T04:42:46;99284.81;;;13.45;100.00
2681;BME280;1350;42.134;24.708;2023-04-24T04:45:12;99290.69;;;13.63;100.00
2681;BME280;1350;42.134;24.708;2023-04-24T04:47:42;99282.06;;;13.72;100.00
2681;BME280;1350;42.134;24.708;2023-04-24T04:50:11;99286.41;;;13.98;98.59
2681;BME280;1350;42.134;24.708;2023-04-24T04:52:37;99287.59;;;13.94;96.45
2681;BME280;1350;42.134;24.708;2023-04-24T04:55:05;99277.44;;;14.24;95.44
2681;BME280;1350;42.134;24.708;2023-04-24T04:57:33;99271.88;;;14.63;92.74
2681;BME280;1350;42.134;24.708;2023-04-24T05:00:01;99284.13;;;14.89;91.10
2681;BME280;1350;42.134;24.708;2023-04-24T05:02:30;99280.88;;;15.32;87.02
2681;BME280;1350;42.134;24.708;2023-04-24T05:04:56;99271.28;;;15.75;84.32
2681;BME280;1350;42.134;24.708;2023-04-24T05:07:24;99272.50;;;16.15;79.49
2681;BME280;1350;42.134;24.708;2023-04-24T05:09:51;99269.19;;;16.66;77.05
2681;BME280;1350;42.134;24.708;2023-04-24T05:12:18;99271.22;;;16.85;75.44
2681;BME280;1350;42.134;24.708;2023-04-24T05:14:45;99261.38;;;17.06;73.34
2681;BME280;1350;42.134;24.708;2023-04-24T05:17:11;99255.59;;;17.22;72.43
2681;BME280;1350;42.134;24.708;2023-04-24T05:19:38;99251.84;;;17.45;70.79
2681;BME280;1350;42.134;24.708;2023-04-24T05:22:05;99257.16;;;17.65;70.50
2681;BME280;1350;42.134;24.708;2023-04-24T05:24:33;99251.50;;;17.89;68.20
2681;BME280;1350;42.134;24.708;2023-04-24T05:27:00;99249.75;;;18.08;67.45
2681;BME280;1350;42.134;24.708;2023-04-24T05:29:27;99244.31;;;17.89;66.75
2681;BME280;1350;42.134;24.708;2023-04-24T05:31:56;99241.28;;;17.32;68.86
2681;BME280;1350;42.134;24.708;2023-04-24T05:34:23;99230.66;;;16.47;72.06
2681;BME280;1350;42.134;24.708;2023-04-24T05:36:50;99224.84;;;16.09;75.40
2681;BME280;1350;42.134;24.708;2023-04-24T05:39:17;99237.09;;;16.33;76.48
2681;BME280;1350;42.134;24.708;2023-04-24T05:41:46;99235.78;;;16.81;73.64
2681;BME280;1350;42.134;24.708;2023-04-24T05:44:13;99235.06;;;16.15;75.97
2681;BME280;1350;42.134;24.708;2023-04-24T05:46:39;99226.09;;;15.94;77.93
2681;BME280;1350;42.134;24.708;2023-04-24T05:49:06;99231.69;;;16.13;76.99
2681;BME280;1350;42.134;24.708;2023-04-24T05:51:33;99232.78;;;15.77;78.21
2681;BME280;1350;42.134;24.708;2023-04-24T05:53:59;99235.75;;;15.40;82.06
2681;BME280;1350;42.134;24.708;2023-04-24T05:56:27;99228.16;;;15.90;81.47
2681;BME280;1350;42.134;24.708;2023-04-24T05:58:55;99236.75;;;16.27;78.97
2681;BME280;1350;42.134;24.708;2023-04-24T06:01:21;99238.53;;;16.59;75.34
2681;BME280;1350;42.134;24.708;2023-04-24T06:03:48;99242.38;;;15.80;77.89
2681;BME280;1350;42.134;24.708;2023-04-24T06:06:15;99241.75;;;15.98;78.78
2681;BME280;1350;42.134;24.708;2023-04-24T06:08:42;99244.03;;;16.47;75.86
2681;BME280;1350;42.134;24.708;2023-04-24T06:11:09;99235.41;;;16.86;73.21
2681;BME280;1350;42.134;24.708;2023-04-24T06:13:36;99240.28;;;16.05;78.38
2681;BME280;1350;42.134;24.708;2023-04-24T06:16:04;99238.56;;;16.37;78.78
2681;BME280;1350;42.134;24.708;2023-04-24T06:18:31;99240.28;;;17.13;79.79
2681;BME280;1350;42.134;24.708;2023-04-24T06:20:58;99239.38;;;17.85;72.45
2681;BME280;1350;42.134;24.708;2023-04-24T06:23:25;99237.03;;;18.40;69.01
2681;BME280;1350;42.134;24.708;2023-04-24T06:25:51;99244.59;;;18.66;66.77
2681;BME280;1350;42.134;24.708;2023-04-24T06:28:18;99239.81;;;19.07;65.40
2681;BME280;1350;42.134;24.708;2023-04-24T06:30:45;99235.16;;;19.19;66.76
2681;BME280;1350;42.134;24.708;2023-04-24T06:33:13;99240.38;;;19.11;64.39
2681;BME280;1350;42.134;24.708;2023-04-24T06:35:40;99243.06;;;19.01;63.64
2681;BME280;1350;42.134;24.708;2023-04-24T06:38:06;99241.22;;;19.21;63.25
2681;BME280;1350;42.134;24.708;2023-04-24T06:40:33;99236.69;;;19.02;63.54
2681;BME280;1350;42.134;24.708;2023-04-24T06:43:00;99240.34;;;18.54;63.84
2681;BME280;1350;42.134;24.708;2023-04-24T06:45:28;99240.03;;;17.77;67.90
2681;BME280;1350;42.134;24.708;2023-04-24T06:47:54;99230.16;;;18.57;66.88
2681;BME280;1350;42.134;24.708;2023-04-24T06:50:23;99229.75;;;18.81;65.51
2681;BME280;1350;42.134;24.708;2023-04-24T06:52:50;99243.34;;;18.89;64.68
2681;BME280;1350;42.134;24.708;2023-04-24T06:55:17;99244.22;;;19.46;62.19
2681;BME280;1350;42.134;24.708;2023-04-24T06:57:44;99247.47;;;19.96;61.98
2681;BME280;1350;42.134;24.708;2023-04-24T07:00:12;99243.38;;;19.92;61.19
2681;BME280;1350;42.134;24.708;2023-04-24T07:02:39;99241.78;;;20.63;61.28
2681;BME280;1350;42.134;24.708;2023-04-24T07:05:06;99242.78;;;21.06;59.72
2681;BME280;1350;42.134;24.708;2023-04-24T07:07:35;99245.78;;;20.76;58.49
2681;BME280;1350;42.134;24.708;2023-04-24T07:10:03;99248.34;;;19.87;61.03
2681;BME280;1350;42.134;24.708;2023-04-24T07:12:30;99246.94;;;19.92;61.20
2681;BME280;1350;42.134;24.708;2023-04-24T07:14:57;99249.34;;;20.94;60.67
2681;BME280;1350;42.134;24.708;2023-04-24T07:17:24;99250.47;;;21.19;58.77
2681;BME280;1350;42.134;24.708;2023-04-24T07:19:51;99243.50;;;21.51;56.35
2681;BME280;1350;42.134;24.708;2023-04-24T07:22:17;99242.50;;;20.82;58.71
2681;BME280;1350;42.134;24.708;2023-04-24T07:24:46;99246.19;;;19.44;61.25
2681;BME280;1350;42.134;24.708;2023-04-24T07:27:12;99246.19;;;20.00;60.19
2681;BME280;1350;42.134;24.708;2023-04-24T07:29:40;99241.72;;;20.28;60.70
2681;BME280;1350;42.134;24.708;2023-04-24T07:32:07;99245.97;;;19.74;60.75
2681;BME280;1350;42.134;24.708;2023-04-24T07:34:34;99247.25;;;19.80;61.21
2681;BME280;1350;42.134;24.708;2023-04-24T07:37:01;99242.13;;;19.86;62.59
2681;BME280;1350;42.134;24.708;2023-04-24T07:39:28;99237.97;;;20.38;61.91
2681;BME280;1350;42.134;24.708;2023-04-24T07:41:57;99239.81;;;21.35;60.28
2681;BME280;1350;42.134;24.708;2023-04-24T07:44:25;99238.47;;;21.56;57.61
2681;BME280;1350;42.134;24.708;2023-04-24T07:46:52;99240.88;;;22.11;58.20
2681;BME280;1350;42.134;24.708;2023-04-24T07:49:19;99236.53;;;22.59;57.84
2681;BME280;1350;42.134;24.708;2023-04-24T07:51:45;99226.28;;;22.71;55.90
2681;BME280;1350;42.134;24.708;2023-04-24T07:54:12;99235.09;;;22.39;55.22
2681;BME280;1350;42.134;24.708;2023-04-24T07:56:40;99228.34;;;21.76;56.06
2681;BME280;1350;42.134;24.708;2023-04-24T07:59:09;99226.16;;;21.54;56.93
2681;BME280;1350;42.134;24.708;2023-04-24T08:01:36;99225.44;;;22.29;57.46
2681;BME280;1350;42.134;24.708;2023-04-24T08:04:03;99219.50;;;22.67;55.71
2681;BME280;1350;42.134;24.708;2023-04-24T08:06:31;99213.66;;;22.95;55.20
2681;BME280;1350;42.134;24.708;2023-04-24T08:08:58;99220.97;;;23.43;53.17
2681;BME280;1350;42.134;24.708;2023-04-24T08:11:25;99229.09;;;23.27;50.81
2681;BME280;1350;42.134;24.708;2023-04-24T08:13:52;99220.78;;;22.13;52.11
2681;BME280;1350;42.134;24.708;2023-04-24T08:16:21;99219.06;;;22.04;51.77
2681;BME280;1350;42.134;24.708;2023-04-24T08:18:49;99213.44;;;22.23;54.85
2681;BME280;1350;42.134;24.708;2023-04-24T08:21:15;99207.56;;;23.09;53.24
2681;BME280;1350;42.134;24.708;2023-04-24T08:23:44;99209.13;;;23.28;51.48
2681;BME280;1350;42.134;24.708;2023-04-24T08:26:11;99197.34;;;22.63;53.42
2681;BME280;1350;42.134;24.708;2023-04-24T08:28:38;99201.94;;;22.63;54.10
2681;BME280;1350;42.134;24.708;2023-04-24T08:31:05;99206.44;;;22.54;51.55
2681;BME280;1350;42.134;24.708;2023-04-24T08:33:33;99191.63;;;21.91;54.63
2681;BME280;1350;42.134;24.708;2023-04-24T08:36:01;99191.19;;;21.96;52.91
2681;BME280;1350;42.134;24.708;2023-04-24T08:38:28;99189.59;;;22.68;52.80
2681;BME280;1350;42.134;24.708;2023-04-24T08:40:54;99185.06;;;22.27;53.77
2681;BME280;1350;42.134;24.708;2023-04-24T08:43:23;99179.44;;;21.10;54.32
2681;BME280;1350;42.134;24.708;2023-04-24T08:45:50;99180.63;;;19.91;58.75
2681;BME280;1350;42.134;24.708;2023-04-24T08:48:17;99175.88;;;21.10;55.09
2681;BME280;1350;42.134;24.708;2023-04-24T08:50:47;99177.13;;;20.63;55.92
2681;BME280;1350;42.134;24.708;2023-04-24T08:53:15;99172.53;;;21.33;55.92
2681;BME280;1350;42.134;24.708;2023-04-24T08:55:43;99169.75;;;21.43;54.28
2681;BME280;1350;42.134;24.708;2023-04-24T08:58:13;99161.75;;;21.59;54.33
2681;BME280;1350;42.134;24.708;2023-04-24T09:00:40;99160.66;;;22.03;54.13
2681;BME280;1350;42.134;24.708;2023-04-24T09:03:13;99160.28;;;22.40;52.72
2681;BME280;1350;42.134;24.708;2023-04-24T09:05:41;99165.97;;;22.86;53.09
2681;BME280;1350;42.134;24.708;2023-04-24T09:08:13;99164.13;;;22.95;52.16
2681;BME280;1350;42.134;24.708;2023-04-24T09:10:40;99157.19;;;22.92;51.38
2681;BME280;1350;42.134;24.708;2023-04-24T09:13:07;99164.09;;;22.87;51.23
2681;BME280;1350;42.134;24.708;2023-04-24T09:15:35;99159.03;;;22.84;51.19
2681;BME280;1350;42.134;24.708;2023-04-24T09:18:02;99155.72;;;22.48;51.84
2681;BME280;1350;42.134;24.708;2023-04-24T09:20:29;99143.72;;;22.35;52.53
2681;BME280;1350;42.134;24.708;2023-04-24T09:22:57;99154.66;;;22.91;52.90
2681;BME280;1350;42.134;24.708;2023-04-24T09:25:30;99146.53;;;23.55;52.79
2681;BME280;1350;42.134;24.708;2023-04-24T09:28:00;99149.59;;;23.36;52.23
2681;BME280;1350;42.134;24.708;2023-04-24T09:30:28;99148.53;;;23.53;48.76
2681;BME280;1350;42.134;24.708;2023-04-24T09:33:09;99149.09;;;22.19;51.10
2681;BME280;1350;42.134;24.708;2023-04-24T09:35:37;99144.97;;;22.07;52.12
2681;BME280;1350;42.134;24.708;2023-04-24T09:38:06;99139.09;;;22.85;50.31
2681;BME280;1350;42.134;24.708;2023-04-24T09:40:35;99135.72;;;23.39;49.83
2681;BME280;1350;42.134;24.708;2023-04-24T09:43:02;99130.03;;;23.73;49.88
2681;BME280;1350;42.134;24.708;2023-04-24T09:45:35;99120.75;;;23.75;48.86
2681;BME280;1350;42.134;24.708;2023-04-24T09:48:02;99131.69;;;23.27;49.68
2681;BME280;1350;42.134;24.708;2023-04-24T09:50:32;99123.56;;;23.35;49.34
2681;BME280;1350;42.134;24.708;2023-04-24T09:53:02;99117.28;;;23.35;49.60
2681;BME280;1350;42.134;24.708;2023-04-24T09:55:30;99108.66;;;23.07;50.70
2681;BME280;1350;42.134;24.708;2023-04-24T09:57:59;99099.00;;;21.57;53.13
2681;BME280;1350;42.134;24.708;2023-04-24T10:00:28;99103.66;;;21.47;53.26
2681;BME280;1350;42.134;24.708;2023-04-24T10:02:56;99110.72;;;21.73;53.06
2681;BME280;1350;42.134;24.708;2023-04-24T10:05:24;99117.22;;;21.89;53.19
2681;BME280;1350;42.134;24.708;2023-04-24T10:07:51;99107.22;;;22.39;52.09
2681;BME280;1350;42.134;24.708;2023-04-24T10:10:18;99110.38;;;22.10;52.94
2681;BME280;1350;42.134;24.708;2023-04-24T10:12:46;99111.88;;;21.97;51.95
2681;BME280;1350;42.134;24.708;2023-04-24T10:15:14;99091.38;;;22.44;52.17
2681;BME280;1350;42.134;24.708;2023-04-24T10:17:46;99093.28;;;22.99;51.55
2681;BME280;1350;42.134;24.708;2023-04-24T10:20:18;99085.22;;;22.10;52.23
2681;BME280;1350;42.134;24.708;2023-04-24T10:22:47;99080.97;;;21.99;53.19
2681;BME280;1350;42.134;24.708;2023-04-24T10:25:16;99082.66;;;21.58;53.61
2681;BME280;1350;42.134;24.708;2023-04-24T10:27:43;99073.75;;;22.16;55.45
2681;BME280;1350;42.134;24.708;2023-04-24T10:30:13;99080.03;;;22.24;52.96
2681;BME280;1350;42.134;24.708;2023-04-24T10:32:40;99080.09;;;22.80;51.12
2681;BME280;1350;42.134;24.708;2023-04-24T10:35:08;99064.06;;;22.87;54.10
2681;BME280;1350;42.134;24.708;2023-04-24T10:37:37;99071.56;;;22.03;53.11
2681;BME280;1350;42.134;24.708;2023-04-24T10:40:06;99058.69;;;21.63;55.12
2681;BME280;1350;42.134;24.708;2023-04-24T10:42:34;99055.56;;;22.26;53.59
2681;BME280;1350;42.134;24.708;2023-04-24T10:45:05;99042.03;;;22.26;53.75
2681;BME280;1350;42.134;24.708;2023-04-24T10:47:40;99042.38;;;21.73;54.79
2681;BME280;1350;42.134;24.708;2023-04-24T10:50:08;99052.44;;;21.55;54.98
2681;BME280;1350;42.134;24.708;2023-04-24T10:52:45;99031.22;;;21.60;55.60
2681;BME280;1350;42.134;24.708;2023-04-24T10:55:13;99043.13;;;21.91;56.44
2681;BME280;1350;42.134;24.708;2023-04-24T10:58:01;99044.19;;;21.56;56.22
2681;BME280;1350;42.134;24.708;2023-04-24T11:00:28;99033.78;;;21.28;58.26
2681;BME280;1350;42.134;24.708;2023-04-24T11:02:57;99034.00;;;21.42;56.29
2681;BME280;1350;42.134;24.708;2023-04-24T11:05:49;99034.75;;;21.60;55.03
2681;BME280;1350;42.134;24.708;2023-04-24T11:08:23;99037.78;;;21.24;57.35
2681;BME280;1350;42.134;24.708;2023-04-24T11:10:56;99033.16;;;21.84;57.81
2681;BME280;1350;42.134;24.708;2023-04-24T11:13:24;99028.84;;;21.99;56.73
2681;BME280;1350;42.134;24.708;2023-04-24T11:16:12;99021.38;;;21.85;57.84
2681;BME280;1350;42.134;24.708;2023-04-24T11:18:42;99017.41;;;21.63;57.52
2681;BME280;1350;42.134;24.708;2023-04-24T11:21:11;99018.63;;;21.01;58.54
2681;BME280;1350;42.134;24.708;2023-04-24T11:23:38;99010.16;;;20.53;60.69
2681;BME280;1350;42.134;24.708;2023-04-24T11:26:12;99022.34;;;20.83;60.30
2681;BME280;1350;42.134;24.708;2023-04-24T11:28:49;99009.13;;;21.64;59.10
2681;BME280;1350;42.134;24.708;2023-04-24T11:31:35;99007.06;;;22.08;58.31
2681;BME280;1350;42.134;24.708;2023-04-24T11:34:08;99001.91;;;21.73;59.28
2681;BME280;1350;42.134;24.708;2023-04-24T11:36:35;99005.88;;;22.03;57.84
2681;BME280;1350;42.134;24.708;2023-04-24T11:39:03;99019.19;;;21.96;58.10
2681;BME280;1350;42.134;24.708;2023-04-24T11:41:29;98997.75;;;21.45;58.22
2681;BME280;1350;42.134;24.708;2023-04-24T11:43:56;99000.59;;;21.35;58.69
2681;BME280;1350;42.134;24.708;2023-04-24T11:46:27;98982.41;;;21.45;59.08
2681;BME280;1350;42.134;24.708;2023-04-24T11:48:54;98975.16;;;22.04;59.17
2681;BME280;1350;42.134;24.708;2023-04-24T11:51:22;98972.81;;;22.09;58.46
2681;BME280;1350;42.134;24.708;2023-04-24T11:53:49;98977.50;;;21.83;58.84
2681;BME280;1350;42.134;24.708;2023-04-24T11:56:18;98963.16;;;21.32;59.35
2681;BME280;1350;42.134;24.708;2023-04-24T11:58:45;98947.22;;;21.63;60.52
2681;BME280;1350;42.134;24.708;2023-04-24T12:01:12;98942.09;;;21.94;58.43
2681;BME280;1350;42.134;24.708;2023-04-24T12:03:39;98944.41;;;21.81;59.63
2681;BME280;1350;42.134;24.708;2023-04-24T12:06:09;98935.19;;;22.15;59.30
2681;BME280;1350;42.134;24.708;2023-04-24T12:08:38;98928.59;;;21.94;59.48
2681;BME280;1350;42.134;24.708;2023-04-24T12:11:06;98922.00;;;21.96;58.62
2681;BME280;1350;42.134;24.708;2023-04-24T12:13:34;98921.69;;;21.33;60.56
2681;BME280;1350;42.134;24.708;2023-04-24T12:16:02;98907.66;;;21.30;60.88
2681;BME280;1350;42.134;24.708;2023-04-24T12:18:29;98900.78;;;21.35;61.33
2681;BME280;1350;42.134;24.708;2023-04-24T12:21:14;98890.03;;;21.51;60.99
2681;BME280;1350;42.134;24.708;2023-04-24T12:23:46;98883.84;;;21.17;62.97
2681;BME280;1350;42.134;24.708;2023-04-24T12:26:16;98878.06;;;21.54;61.78
2681;BME280;1350;42.134;24.708;2023-04-24T12:28:46;98867.81;;;21.90;61.64
2681;BME280;1350;42.134;24.708;2023-04-24T12:31:13;98866.28;;;22.11;62.37
2681;BME280;1350;42.134;24.708;2023-04-24T12:33:40;98872.91;;;21.85;61.36
2681;BME280;1350;42.134;24.708;2023-04-24T12:36:10;98857.00;;;21.90;62.29
2681;BME280;1350;42.134;24.708;2023-04-24T12:38:38;98859.56;;;22.23;62.92
2681;BME280;1350;42.134;24.708;2023-04-24T12:41:09;98854.66;;;21.87;61.67
2681;BME280;1350;42.134;24.708;2023-04-24T12:43:36;98860.03;;;21.70;61.55
2681;BME280;1350;42.134;24.708;2023-04-24T12:46:04;98857.50;;;21.61;61.59
2681;BME280;1350;42.134;24.708;2023-04-24T12:48:31;98839.28;;;21.71;60.61
2681;BME280;1350;42.134;24.708;2023-04-24T12:50:58;98829.88;;;21.75;60.36
2681;BME280;1350;42.134;24.708;2023-04-24T12:53:27;98836.09;;;21.92;59.15
2681;BME280;1350;42.134;24.708;2023-04-24T12:55:55;98826.81;;;22.18;59.28
2681;BME280;1350;42.134;24.708;2023-04-24T12:58:23;98813.88;;;22.60;59.97
2681;BME280;1350;42.134;24.708;2023-04-24T13:00:50;98810.69;;;22.49;60.59
2681;BME280;1350;42.134;24.708;2023-04-24T13:03:17;98840.13;;;22.28;60.00
2681;BME280;1350;42.134;24.708;2023-04-24T13:05:44;98830.03;;;21.90;59.29
2681;BME280;1350;42.134;24.708;2023-04-24T13:08:11;98833.06;;;21.95;58.43
2681;BME280;1350;42.134;24.708;2023-04-24T13:10:38;98810.09;;;22.07;58.77